• Join FlightAware (Why Join?)
  • Login
  • US Flag 
08:28AM EDT


 

Airport Tracker/Info


-or-


 

Live Flight TrackerFlight Track Log ✈ EJA396 ✈ 03-Aug-2013 ✈ KMRY - XA89

Flight Track Log - Related Links

Times and Time Zones

All times are in EDT time to prevent confusion due to time zone crossing. See the EJA396 flight status page for this flight to view local times or setup timezone preferences in your user account.

Time Position Orientation Groundspeed Altitude Reporting Facility
EDT Latitude Longitude Course Direction KTS MPH feet Rate Location/Type
03:41PM 36.6000 -121.8667 338° Northwest 165 190 2,400  Level Northern Cal TRACON
03:42PM 36.6667 -121.9000 338° Northwest 219 252 5,700 2,280 Climbing Northern Cal TRACON
03:43PM 36.7000 -121.9333 321° Northwest 276 318 7,000 1,620 Climbing Northern Cal TRACON
03:44PM 36.6500 -121.9667 208° Southwest 290 334 9,000 960 Climbing Northern Cal TRACON
03:45PM 36.6006 -121.8869 128° Southeast 298 343 9,000 1,140 Level Oakland Center
03:46PM 36.5572 -121.7964 121° Southeast 297 342 11,500 2,640 Climbing Oakland Center
03:47PM 36.5167 -121.7167 122° Southeast 319 367 14,100 2,640 Climbing Northern Cal TRACON
03:48PM 36.4667 -121.6167 122° Southeast 344 396 16,500 1,920 Climbing Northern Cal TRACON
03:49PM 36.4100 -121.4983 121° Southeast 359 413 18,300 1,080 Climbing Oakland Center
03:50PM 36.3536 -121.3825 121° Southeast 385 443 19,000 960 Climbing Oakland Center
03:51PM 36.2944 -121.2636 122° Southeast 401 461 20,300 1,320 Climbing Oakland Center
03:52PM 36.2297 -121.1464 124° Southeast 410 472 21,800 1,560 Climbing Oakland Center
03:53PM 36.1489 -121.0036 125° Southeast 420 483 23,600 1,620 Climbing Oakland Center
03:54PM 36.0814 -120.8814 124° Southeast 426 490 25,200 1,560 Climbing Oakland Center
03:55PM 36.0139 -120.7594 124° Southeast 429 494 26,800 1,500 Climbing Oakland Center
03:56PM 35.9453 -120.6383 125° Southeast 431 496 28,300 1,440 Climbing Oakland Center
03:57PM 35.8769 -120.5147 124° Southeast 434 499 29,800 1,440 Climbing Oakland Center
03:58PM 35.7992 -120.4033 131° Southeast 429 494 31,300 1,440 Climbing Oakland Center
03:59PM 35.7133 -120.3056 137° Southeast 421 484 32,800 1,440 Climbing Oakland Center
04:00PM 35.6294 -120.2061 136° Southeast 416 479 34,300 1,440 Climbing Oakland Center
04:01PM 35.5467 -120.1069 136° Southeast 410 472 35,800 1,440 Climbing Oakland Center
04:02PM 35.4581 -120.0247 143° Southeast 397 457 37,300 1,260 Climbing Oakland Center
04:03PM 35.3786 -119.9381 138° Southeast 386 444 38,500 1,140 Climbing Oakland Center
04:04PM 35.3450 -119.8689 121° Southeast 392 451 39,100 960 Climbing Los Angeles Center
04:05PM 35.2886 -119.7544 121° Southeast 392 451 40,100 900 Climbing Los Angeles Center
04:06PM 35.2336 -119.6419 121° Southeast 387 445 41,000 420 Climbing Los Angeles Center
04:07PM 35.1675 -119.5056 121° Southeast 390 449 41,000  Level Los Angeles Center
04:08PM 35.1092 -119.3869 121° Southeast 403 464 41,000  Level Los Angeles Center
04:09PM 35.0494 -119.2658 121° Southeast 413 475 41,000  Level Los Angeles Center
04:10PM 34.9886 -119.1419 121° Southeast 424 488 41,000  Level Los Angeles Center
04:11PM 34.9436 -119.0031 112° Southeast 440 506 41,000  Level Los Angeles Center
04:12PM 34.8978 -118.8475 110° East 442 509 41,000  Level Los Angeles Center
04:13PM 34.8581 -118.7069 109° East 439 505 41,000  Level Los Angeles Center
04:14PM 34.8178 -118.5678 109° East 436 502 41,000  Level Los Angeles Center
04:15PM 34.7808 -118.4425 110° East 430 495 41,000  Level Los Angeles Center
04:16PM 34.7331 -118.2792 110° East 428 493 41,000  Level Los Angeles Center
04:17PM 34.6928 -118.1447 110° East 427 491 41,000  Level Los Angeles Center
04:18PM 34.6531 -118.0111 110° East 424 488 41,000  Level Los Angeles Center
04:19PM 34.6128 -117.8778 110° East 424 488 41,000  Level Los Angeles Center
04:20PM 34.5733 -117.7439 110° East 425 489 41,000  Level Los Angeles Center
04:21PM 34.5247 -117.5833 110° East 427 491 41,000  Level Los Angeles Center
04:22PM 34.4853 -117.4494 110° East 427 491 41,000  Level Los Angeles Center
04:23PM 34.4450 -117.3164 110° East 425 489 41,000  Level Los Angeles Center
04:24PM 34.4033 -117.1833 111° Southeast 426 490 41,000  Level Los Angeles Center
04:25PM 34.3642 -117.0511 110° East 422 486 41,000  Level Los Angeles Center
04:27PM 34.3158 -116.8931 110° East 421 484 41,000  Level Los Angeles Center
04:28PM 34.2744 -116.7617 111° Southeast 421 484 41,000  Level Los Angeles Center
04:29PM 34.2344 -116.6292 110° East 419 482 41,000  Level Los Angeles Center
04:30PM 34.1933 -116.4947 110° East 427 491 41,000  Level Los Angeles Center
04:31PM 34.1531 -116.3628 110° East 423 487 41,000  Level Los Angeles Center
04:32PM 34.1081 -116.2228 111° Southeast 414 476 41,000  Level Los Angeles Center
04:33PM 34.0678 -116.0944 111° Southeast 410 472 41,000  Level Los Angeles Center
04:34PM 34.0267 -115.9633 111° Southeast 413 475 41,000  Level Los Angeles Center
04:35PM 33.9833 -115.8303 111° Southeast 423 487 41,000  Level Los Angeles Center
04:36PM 33.9328 -115.6731 111° Southeast 419 482 41,000  Level Los Angeles Center
04:37PM 33.8917 -115.5439 111° Southeast 414 476 41,000  Level Los Angeles Center
04:38PM 33.8489 -115.4139 112° Southeast 417 480 41,000  Level Los Angeles Center
04:39PM 33.8061 -115.2839 112° Southeast 417 480 41,000  Level Los Angeles Center
04:40PM 33.7644 -115.1539 111° Southeast 417 480 41,000  Level Los Angeles Center
04:41PM 33.7219 -115.0236 111° Southeast 418 481 41,000  Level Los Angeles Center
04:42PM 33.6794 -114.8939 111° Southeast 417 480 41,000  Level Los Angeles Center
04:43PM 33.6283 -114.7389 112° Southeast 418 481 41,000  Level Los Angeles Center
04:44PM 33.5858 -114.6108 112° Southeast 414 476 41,000  Level Los Angeles Center
04:45PM 33.5433 -114.4811 111° Southeast 417 480 41,000  Level Los Angeles Center
04:46PM 33.5169 -114.3436 103° East 426 490 41,000  Level Los Angeles Center
04:47PM 33.4922 -114.1836 100° East 424 488 41,000  Level Albuquerque Center
04:48PM 33.4669 -114.0461 102° East 424 488 41,000  Level Albuquerque Center
04:49PM 33.4414 -113.9094 103° East 422 486 41,000  Level Albuquerque Center
04:50PM 33.4181 -113.7719 101° East 422 486 41,000  Level Albuquerque Center
04:51PM 33.3875 -113.6078 103° East 422 486 41,000  Level Albuquerque Center
04:52PM 33.3639 -113.4717 102° East 418 481 41,000  Level Albuquerque Center
04:53PM 33.3369 -113.3353 103° East 420 483 41,000  Level Albuquerque Center
04:54PM 33.3125 -113.1989 102° East 419 482 41,000  Level Albuquerque Center
04:55PM 33.2867 -113.0608 103° East 422 486 41,000  Level Albuquerque Center
04:57PM 33.2603 -112.9231 103° East 424 488 41,000  Level Albuquerque Center
04:58PM 33.2350 -112.7858 102° East 424 488 41,000  Level Albuquerque Center
04:59PM 33.2086 -112.6486 103° East 422 486 41,000  Level Albuquerque Center
05:00PM 33.1808 -112.5072 103° East 420 483 41,000  Level Albuquerque Center
05:01PM 33.1550 -112.3717 103° East 422 486 41,000  Level Albuquerque Center
05:02PM 33.1231 -112.2083 103° East 423 487 41,000  Level Albuquerque Center
05:03PM 33.0969 -112.0722 103° East 424 488 41,000  Level Albuquerque Center
05:04PM 33.0697 -111.9364 103° East 423 487 41,000  Level Albuquerque Center
05:05PM 33.0439 -111.8011 103° East 423 487 41,000  Level Albuquerque Center
05:06PM 33.0178 -111.6656 103° East 422 486 41,000  Level Albuquerque Center
05:07PM 32.9911 -111.5303 103° East 422 486 41,000  Level Albuquerque Center
05:08PM 32.9636 -111.3953 104° East 422 486 41,000  Level Albuquerque Center
05:09PM 32.9308 -111.2319 103° East 424 488 41,000  Level Albuquerque Center
05:10PM 32.9036 -111.0958 103° East 424 488 41,000  Level Albuquerque Center
05:11PM 32.8750 -110.9617 104° East 422 486 41,000  Level Albuquerque Center
05:12PM 32.8481 -110.8256 103° East 424 488 41,000  Level Albuquerque Center
05:13PM 32.8200 -110.6900 104° East 423 487 41,000  Level Albuquerque Center
05:14PM 32.7883 -110.5422 104° East 423 487 41,000  Level Albuquerque Center
05:15PM 32.7600 -110.4072 104° East 422 486 41,000  Level Albuquerque Center
05:16PM 32.7325 -110.2728 104° East 422 486 41,000  Level Albuquerque Center
05:17PM 32.7039 -110.1389 104° East 420 483 41,000  Level Albuquerque Center
05:18PM 32.6756 -110.0047 104° East 421 484 41,000  Level Albuquerque Center
05:19PM 32.6408 -109.8456 104° East 419 482 41,000  Level Albuquerque Center
05:20PM 32.6108 -109.7119 105° East 420 483 41,000  Level Albuquerque Center
05:21PM 32.5792 -109.5761 105° East 427 491 41,000  Level Albuquerque Center
05:22PM 32.5500 -109.4428 105° East 424 488 41,000  Level Albuquerque Center
05:23PM 32.5214 -109.3108 104° East 420 483 41,000  Level Albuquerque Center
05:24PM 32.4925 -109.1786 104° East 419 482 41,000  Level Albuquerque Center
05:25PM 32.4575 -109.0208 105° East 418 481 41,000  Level Albuquerque Center
05:26PM 32.4286 -108.8892 105° East 418 481 41,000  Level Albuquerque Center
05:27PM 32.3989 -108.7564 105° East 419 482 41,000  Level Albuquerque Center
05:28PM 32.3689 -108.6258 105° East 416 479 41,000  Level Albuquerque Center
05:29PM 32.3394 -108.4953 105° East 414 476 41,000  Level Albuquerque Center
05:30PM 32.3092 -108.3617 105° East 413 475 41,000  Level Albuquerque Center
05:31PM 32.2789 -108.2308 105° East 414 476 41,000  Level Albuquerque Center
05:32PM 32.2442 -108.0753 105° East 411 473 41,000  Level Albuquerque Center
05:33PM 32.2128 -107.9447 106° East 414 476 41,000  Level Albuquerque Center
05:34PM 32.1828 -107.8153 105° East 413 475 41,000  Level Albuquerque Center
05:36PM 32.1528 -107.6847 105° East 414 476 41,000  Level Albuquerque Center
05:37PM 32.1231 -107.5531 105° East 416 479 41,000  Level Albuquerque Center
05:38PM 32.0922 -107.4244 106° East 414 476 41,000  Level Albuquerque Center
05:39PM 32.0608 -107.2942 106° East 415 478 41,000  Level Albuquerque Center
05:40PM 32.0247 -107.1383 105° East 415 478 41,000  Level Albuquerque Center
05:41PM 31.9947 -107.0086 105° East 414 476 41,000  Level Albuquerque Center
05:42PM 31.9636 -106.8772 106° East 417 480 41,000  Level Albuquerque Center
05:43PM 31.9319 -106.7514 106° East 410 472 41,000  Level Albuquerque Center
05:44PM 31.8997 -106.6225 106° East 412 474 41,000  Level Albuquerque Center
05:45PM 31.8675 -106.4908 106° East 418 481 41,000  Level Albuquerque Center
05:46PM 31.8367 -106.3589 105° East 420 483 41,000  Level Albuquerque Center
05:47PM 31.7983 -106.2014 106° East 430 495 41,000  Level Albuquerque Center
05:48PM 31.7642 -106.0731 107° East 413 475 41,000  Level Albuquerque Center
05:49PM 31.7319 -105.9439 106° East 414 476 41,000  Level Albuquerque Center
05:50PM 31.6986 -105.8144 107° East 415 478 41,000  Level Albuquerque Center
05:51PM 31.6664 -105.6836 106° East 416 479 41,000  Level Albuquerque Center
05:52PM 31.6331 -105.5531 107° East 417 480 41,000  Level Albuquerque Center
05:53PM 31.6000 -105.4219 106° East 418 481 41,000  Level Albuquerque Center
05:54PM 31.5681 -105.2914 106° East 417 480 41,000  Level Albuquerque Center
05:55PM 31.5278 -105.1364 107° East 414 476 41,000  Level Albuquerque Center
05:56PM 31.4947 -105.0058 107° East 415 478 41,000  Level Albuquerque Center
05:57PM 31.4606 -104.8747 107° East 418 481 41,000  Level Albuquerque Center
05:58PM 31.4272 -104.7436 107° East 418 481 41,000  Level Albuquerque Center
05:59PM 31.3942 -104.6139 107° East 416 479 41,000  Level Albuquerque Center
06:00PM 31.3592 -104.4831 107° East 418 481 41,000  Level Albuquerque Center
06:01PM 31.3267 -104.3522 106° East 418 481 41,000  Level Albuquerque Center
06:02PM 31.2908 -104.2217 108° East 419 482 41,000  Level Albuquerque Center
06:03PM 31.2558 -104.0903 107° East 423 487 41,000  Level Albuquerque Center
06:04PM 31.2208 -103.9597 107° East 422 486 41,000  Level Albuquerque Center
06:05PM 31.1789 -103.8033 107° East 420 483 41,000  Level Albuquerque Center
06:06PM 31.1444 -103.6828 108° East 420 483 41,000  Level Albuquerque Center
06:07PM 31.1086 -103.5528 108° East 421 484 41,000  Level Albuquerque Center
06:08PM 31.0733 -103.4222 107° East 423 487 41,000  Level Albuquerque Center
06:09PM 31.0364 -103.2922 108° East 423 487 41,000  Level Albuquerque Center
06:10PM 30.9953 -103.1369 107° East 421 484 41,000  Level Albuquerque Center
06:11PM 30.9594 -103.0086 108° East 418 481 41,000  Level Albuquerque Center
06:12PM 30.8933 -102.8947 124° Southeast 429 494 41,000  Level Albuquerque Center
06:13PM 30.8192 -102.7900 129° Southeast 423 487 41,000  Level Albuquerque Center
06:14PM 30.7447 -102.6847 129° Southeast 424 488 41,000  Level Albuquerque Center
06:15PM 30.6719 -102.5803 129° Southeast 420 483 41,000  Level Albuquerque Center
06:17PM 30.5981 -102.4772 130° Southeast 419 482 41,000  Level Albuquerque Center
06:18PM 30.5089 -102.3525 130° Southeast 420 483 41,000  Level Albuquerque Center
06:18PM 30.4661 -102.2908 129° Southeast 417 480 41,000  Level Houston Center
06:19PM 30.3917 -102.1881 130° Southeast 418 481 41,000  Level Houston Center
06:20PM 30.3036 -102.0619 129° Southeast 418 481 41,000  Level Houston Center
06:21PM 30.2294 -101.9569 129° Southeast 420 483 41,000  Level Houston Center
06:22PM 30.1567 -101.8558 130° Southeast 415 478 41,000  Level Houston Center
06:23PM 30.0811 -101.7550 131° Southeast 416 479 41,000  Level Houston Center
06:24PM 30.0072 -101.6533 130° Southeast 415 478 41,000  Level Houston Center
06:25PM 29.9331 -101.5522 130° Southeast 415 478 41,000  Level Houston Center
06:26PM 29.8592 -101.4508 130° Southeast 414 476 41,000  Level Houston Center
06:28PM 29.7711 -101.3286 130° Southeast 415 478 41,000  Level Houston Center
06:29PM 29.6961 -101.2283 131° Southeast 415 478 41,000  Level Houston Center
06:30PM 29.6217 -101.1272 130° Southeast 416 479 41,000  Level Houston Center
06:31PM 29.5481 -101.0261 130° Southeast 414 476 41,000 -60 Level Houston Center
06:32PM 29.4736 -100.9253 130° Southeast 416 479 40,900 -960 Descending Houston Center
06:33PM 29.3972 -100.8225 130° Southeast 424 488 39,100 -2,160 Descending Houston Center
06:34PM 29.3033 -100.7350 141° Southeast 443 510 36,500 -3,060 Descending Houston Center
06:35PM 29.1756 -100.6514 150° Southeast 446 513 32,900 -3,420 Descending Houston Center
06:36PM 29.0714 -100.5819 150° Southeast 438 504 29,500 -3,420 Descending Houston Center
06:37PM 28.9636 -100.5133 151° Southeast 444 511 26,000 -3,420 Descending Houston Center
06:38PM 28.8597 -100.4428 149° Southeast 438 504 22,500 -3,480 Descending Houston Center
06:39PM 28.7631 -100.3789 150° Southeast 411 473 18,900 -3,480 Descending Houston Center
06:40PM 28.6719 -100.3222 151° Southeast 382 440 15,400 -3,660 Descending Houston Center
06:41PM 28.5764 -100.2622 151° Southeast 362 417 11,400 -3,420 Descending Houston Center
06:42PM 28.4992 -100.2111 150° Southeast 332 382 8,400 -2,940 Descending Houston Center
06:44PM 28.3408 -100.1074 139° Southeast  Level FlightAware Approximate
06:51PM 28.2086 -100.0188 156° South  Level Estimated
06:52PM 28.2086 -100.0188 156° South  Level Estimated
06:53PM 28.2086 -100.0188 156° South  Level Estimated
06:54PM 28.2086 -100.0188 156° South  Level Estimated
06:55PM 28.2086 -100.0188 156° South  Level Estimated
06:56PM 28.2086 -100.0188 156° South  Level Estimated
06:57PM 28.2086 -100.0188 156° South  Level Estimated
06:58PM 28.2086 -100.0188 156° South  Level Estimated
06:59PM 28.2086 -100.0188 156° South  Level Estimated
07:00PM 28.2086 -100.0188 156° South  Level Estimated
07:01PM 28.2086 -100.0188 156° South  Level Estimated
07:02PM 28.2086 -100.0188 156° South  Level Estimated
07:03PM 28.2086 -100.0188 156° South  Level Estimated